This is the latest recevied weather packets stored in our database for station/object W7BL. If no packets are shown the sender has not sent any weather packets the latest 1 day(s).
| Time | Temp. | Humidity | Pressure | Rain* | Wind** | Luminosity | Snow |
|---|---|---|---|---|---|---|---|
| 1778027430 | 23.33° C | 32% | - | 0 mm | - | - | - |
| 1778027126 | 23.89° C | 32% | - | 0 mm | - | - | - |
| 1778026518 | 23.33° C | 31% | - | 0 mm | - | - | - |
| 1778024096 | 23.89° C | 33% | - | 0 mm | - | - | - |
| 1778023188 | 24.44° C | 34% | - | 0 mm | - | - | - |
| 1778022281 | 23.33° C | 34% | - | 0 mm | - | - | - |
| 1778021977 | 23.89° C | 32% | - | 0 mm | - | - | - |
| 1778021370 | 23.33° C | 32% | - | 0 mm | - | - | - |
| 1778019550 | 24.44° C | 30% | - | 0 mm | - | - | - |
| 1778017129 | 23.89° C | 32% | - | 0 mm | - | - | - |
| 1778016827 | 23.89° C | 31% | - | 0 mm | - | - | - |
| 1778016220 | 25° C | 31% | - | 0 mm | - | - | - |
| 1778015916 | 23.33° C | 33% | - | 0 mm | - | - | - |
| 1778015614 | 23.89° C | 33% | - | 0 mm | - | - | - |
| 1778015310 | 23.89° C | 33% | - | 0 mm | - | - | - |
| 1778014098 | 22.78° C | 33% | - | 0 mm | - | - | - |
| 1778013797 | 23.89° C | 33% | - | 0 mm | - | - | - |
| 1778011977 | 22.78° C | 38% | - | 0 mm | - | - | - |
| 1778011372 | 22.78° C | 40% | - | 0 mm | - | - | - |
| 1778011067 | 22.78° C | 41% | - | 0 mm | - | - | - |
| 1778010765 | 22.78° C | 41% | - | 0 mm | - | - | - |
| 1778009854 | 21.67° C | 43% | - | 0 mm | - | - | - |
| 1778007133 | 21.11° C | 46% | - | 0 mm | - | - | - |
| 1778006828 | 21.67° C | 44% | - | 0 mm | - | - | - |
| 1778005921 | 22.78° C | 43% | - | 0 mm | - | - | - |
* Rain latest hour (hover to see other rain measurements)
** Current wind speed in m/s (hover to see current wind gust speed)